Time;durP1;ratioP1;P1;durP2;ratioP2;P2;SDS_P1;SDS_P2;PMS_P1;PMS_P2;Temp;Humidity;BMP_temperature;BMP_pressure;BME280_temperature;BME280_humidity;BME280_pressure;Samples;Min_cycle;Max_cycle;Signal;HPM_P1;HPM_P2
2021/09/04 00:00:17;;;;;;;6.35;4.68;;;14.30;98.30;;;;;;5054939;28;20100;-81
2021/09/04 00:02:43;;;;;;;8.20;4.95;;;14.30;98.40;;;;;;5054931;28;20463;-82
2021/09/04 00:05:09;;;;;;;7.50;4.75;;;14.30;98.50;;;;;;5040155;28;20037;-82
2021/09/04 00:07:35;;;;;;;8.43;5.05;;;14.20;98.60;;;;;;5033565;28;20026;-81
2021/09/04 00:10:00;;;;;;;7.70;5.20;;;14.20;98.80;;;;;;5033690;28;20116;-81
2021/09/04 00:12:27;;;;;;;7.70;4.97;;;14.20;98.90;;;;;;5035129;28;20113;-81
2021/09/04 00:14:54;;;;;;;8.88;5.10;;;14.20;99.00;;;;;;5034789;28;20192;-81
2021/09/04 00:17:19;;;;;;;9.50;5.15;;;14.20;99.00;;;;;;5034676;28;20025;-81
2021/09/04 00:19:45;;;;;;;7.07;5.00;;;14.30;99.10;;;;;;5035042;28;20489;-81
2021/09/04 00:22:11;;;;;;;10.73;5.10;;;14.30;99.10;;;;;;5034663;28;20383;-81
2021/09/04 00:24:36;;;;;;;7.82;5.10;;;14.40;99.10;;;;;;5033887;28;20068;-81
2021/09/04 00:27:02;;;;;;;9.05;4.70;;;14.40;99.00;;;;;;5034232;28;20049;-81
2021/09/04 00:29:28;;;;;;;7.50;5.00;;;14.40;99.00;;;;;;5035599;28;20138;-81
2021/09/04 00:31:54;;;;;;;8.15;5.28;;;14.40;99.00;;;;;;5034698;28;20096;-81
2021/09/04 00:34:20;;;;;;;7.40;5.70;;;14.40;99.00;;;;;;5034658;28;20022;-82
2021/09/04 00:36:46;;;;;;;10.43;5.55;;;14.40;98.90;;;;;;5033925;28;20025;-81
2021/09/04 00:39:11;;;;;;;7.53;5.43;;;14.40;98.90;;;;;;5034273;28;20032;-82
2021/09/04 00:41:37;;;;;;;9.43;5.03;;;14.40;98.90;;;;;;5036496;28;20060;-81
2021/09/04 00:44:05;;;;;;;8.25;5.00;;;14.50;98.80;;;;;;5053686;28;20384;-81
2021/09/04 00:46:31;;;;;;;8.75;5.25;;;14.50;98.70;;;;;;5052710;28;20029;-82
2021/09/04 00:48:57;;;;;;;8.30;5.13;;;14.60;98.70;;;;;;5052871;28;20059;-81
2021/09/04 00:51:23;;;;;;;6.50;4.68;;;14.70;98.60;;;;;;5054040;28;20092;-81
2021/09/04 00:53:50;;;;;;;9.25;5.03;;;14.70;98.60;;;;;;5052745;28;20048;-81
2021/09/04 00:56:16;;;;;;;8.38;4.85;;;14.70;98.50;;;;;;5053951;28;20013;-81
2021/09/04 00:58:42;;;;;;;9.18;5.28;;;14.70;98.30;;;;;;5053953;28;20047;-81
2021/09/04 01:01:08;;;;;;;9.40;5.00;;;14.70;98.30;;;;;;5047220;28;20041;-82
2021/09/04 01:03:34;;;;;;;8.82;5.00;;;14.70;98.20;;;;;;5034014;28;20487;-82
2021/09/04 01:06:00;;;;;;;6.90;4.85;;;14.60;98.20;;;;;;5034013;28;20036;-81
2021/09/04 01:08:26;;;;;;;7.30;4.95;;;14.60;98.40;;;;;;5034032;28;20460;-82
2021/09/04 01:10:52;;;;;;;9.55;5.80;;;14.60;98.40;;;;;;5033773;28;20026;-82
2021/09/04 01:13:22;;;;;;;8.80;5.18;;;14.60;98.40;;;;;;5032573;28;20025;-80
2021/09/04 01:15:48;;;;;;;10.48;5.85;;;14.60;98.50;;;;;;5033747;28;20014;-80
2021/09/04 01:18:14;;;;;;;7.63;5.15;;;14.50;98.50;;;;;;5032500;28;20033;-80
2021/09/04 01:20:40;;;;;;;8.35;5.22;;;14.50;98.50;;;;;;5044023;28;20029;-80
2021/09/04 01:23:06;;;;;;;6.22;4.68;;;14.50;98.50;;;;;;5051275;28;20106;-81
2021/09/04 01:25:33;;;;;;;8.93;5.13;;;14.50;98.60;;;;;;5053638;28;20527;-80
2021/09/04 01:28:02;;;;;;;8.80;5.35;;;14.50;98.60;;;;;;5053346;28;20083;-80
2021/09/04 01:30:28;;;;;;;9.18;5.82;;;14.50;98.60;;;;;;5052368;28;20021;-80
2021/09/04 01:32:54;;;;;;;8.15;5.20;;;14.60;98.50;;;;;;5052184;28;20029;-80
2021/09/04 01:35:23;;;;;;;7.57;4.97;;;14.60;98.50;;;;;;5053534;28;20072;-80
2021/09/04 01:37:49;;;;;;;8.15;4.47;;;14.50;98.40;;;;;;5053777;28;20025;-80
2021/09/04 01:40:16;;;;;;;8.98;5.43;;;14.50;98.50;;;;;;5047591;28;20029;-80
2021/09/04 01:42:45;;;;;;;8.68;5.43;;;14.40;98.40;;;;;;5033286;28;20377;-80
2021/09/04 01:45:12;;;;;;;6.85;4.93;;;14.40;98.50;;;;;;5033454;28;20049;-81
2021/09/04 01:47:38;;;;;;;7.30;5.13;;;14.40;98.60;;;;;;5033731;28;20060;-81
2021/09/04 01:50:09;;;;;;;7.93;5.00;;;14.40;98.50;;;;;;5035661;28;20057;-80
2021/09/04 01:52:36;;;;;;;10.35;5.40;;;14.40;98.60;;;;;;5037419;28;20017;-81
2021/09/04 01:55:02;;;;;;;7.88;5.28;;;14.40;98.60;;;;;;5036110;28;20064;-82
2021/09/04 01:57:28;;;;;;;9.77;4.93;;;14.40;98.60;;;;;;5037314;28;20049;-81
2021/09/04 01:59:53;;;;;;;8.15;5.30;;;14.30;98.70;;;;;;5045313;28;20033;-80
2021/09/04 02:02:19;;;;;;;9.35;5.45;;;14.30;98.80;;;;;;5056053;28;20048;-80
2021/09/04 02:04:45;;;;;;;8.40;5.55;;;14.40;98.70;;;;;;5057455;28;20356;-80
2021/09/04 02:07:10;;;;;;;9.23;5.28;;;14.40;98.80;;;;;;5057283;28;20345;-82
2021/09/04 02:09:36;;;;;;;9.10;5.47;;;14.40;98.90;;;;;;5055874;28;20414;-80
2021/09/04 02:12:02;;;;;;;9.15;5.57;;;14.40;98.90;;;;;;5057373;28;20087;-81
2021/09/04 02:14:27;;;;;;;8.82;5.57;;;14.50;98.90;;;;;;5056903;28;20104;-80
2021/09/04 02:16:53;;;;;;;9.07;5.75;;;14.50;98.70;;;;;;5055721;28;20044;-80
2021/09/04 02:19:19;;;;;;;8.07;5.47;;;14.50;98.70;;;;;;5056641;28;20029;-81
2021/09/04 02:21:45;;;;;;;8.50;5.65;;;14.60;98.60;;;;;;5056888;28;20024;-80
2021/09/04 02:24:11;;;;;;;8.15;5.35;;;14.60;98.60;;;;;;5056795;28;20032;-82
2021/09/04 02:26:36;;;;;;;9.27;5.88;;;14.70;98.40;;;;;;5055197;28;20049;-84
2021/09/04 02:29:02;;;;;;;7.30;5.20;;;14.70;98.30;;;;;;5055444;28;20467;-80
2021/09/04 02:31:28;;;;;;;8.45;5.25;;;14.80;98.30;;;;;;5056936;28;20079;-82
2021/09/04 02:33:55;;;;;;;11.43;5.68;;;14.90;98.00;;;;;;5056957;28;20375;-80
2021/09/04 02:36:22;;;;;;;5.90;4.70;;;14.90;98.00;;;;;;5056586;28;20043;-81
2021/09/04 02:38:48;;;;;;;8.57;5.72;;;14.80;98.00;;;;;;5039168;28;20026;-84
2021/09/04 02:41:16;;;;;;;7.35;5.25;;;14.90;97.90;;;;;;5035264;28;20549;-83
2021/09/04 02:43:42;;;;;;;7.95;5.05;;;14.80;97.90;;;;;;5035211;28;20392;-82
2021/09/04 02:46:09;;;;;;;8.80;5.75;;;14.70;98.10;;;;;;5036677;28;20033;-82
2021/09/04 02:48:35;;;;;;;9.35;5.28;;;14.70;98.20;;;;;;5036584;28;20025;-83
2021/09/04 02:51:01;;;;;;;8.40;5.32;;;14.60;98.40;;;;;;5036638;28;20025;-82
2021/09/04 02:53:27;;;;;;;7.32;5.22;;;14.70;98.40;;;;;;5036288;28;20046;-82
2021/09/04 02:55:52;;;;;;;8.65;5.47;;;14.60;98.40;;;;;;5037778;28;20123;-80
2021/09/04 02:58:18;;;;;;;10.23;5.90;;;14.70;98.40;;;;;;5056368;28;20067;-81
2021/09/04 03:00:44;;;;;;;11.73;5.10;;;14.70;98.40;;;;;;5055664;28;20033;-81
2021/09/04 03:03:10;;;;;;;9.55;5.28;;;14.70;98.50;;;;;;5056120;28;20025;-82
2021/09/04 03:05:36;;;;;;;7.32;4.80;;;14.70;98.60;;;;;;5056282;28;20434;-82
2021/09/04 03:08:02;;;;;;;8.38;5.57;;;14.70;98.50;;;;;;5055249;28;20025;-80
2021/09/04 03:10:28;;;;;;;8.07;5.95;;;14.80;98.30;;;;;;5055924;28;20025;-81
2021/09/04 03:12:54;;;;;;;9.55;6.25;;;14.80;98.40;;;;;;5054709;28;20517;-82
2021/09/04 03:15:19;;;;;;;8.88;5.28;;;14.80;98.50;;;;;;5049102;28;20021;-82
2021/09/04 03:17:45;;;;;;;7.43;5.32;;;14.80;98.50;;;;;;5034572;28;20124;-80
2021/09/04 03:20:11;;;;;;;8.38;5.80;;;14.90;98.40;;;;;;5035647;28;20030;-80
2021/09/04 03:22:38;;;;;;;11.35;5.85;;;14.90;98.30;;;;;;5034525;28;20419;-82
2021/09/04 03:25:05;;;;;;;8.82;6.05;;;14.90;98.30;;;;;;5035719;28;20029;-80
2021/09/04 03:27:31;;;;;;;7.68;5.40;;;15.00;98.30;;;;;;5034029;28;20049;-82
2021/09/04 03:29:57;;;;;;;11.25;5.97;;;15.00;98.40;;;;;;5035923;28;20060;-80
2021/09/04 03:32:23;;;;;;;8.73;5.85;;;15.00;98.30;;;;;;5036537;28;20109;-82
2021/09/04 03:34:50;;;;;;;9.68;5.10;;;15.10;98.30;;;;;;5034287;28;20365;-82
2021/09/04 03:37:15;;;;;;;10.88;5.32;;;15.10;98.20;;;;;;5034290;28;20073;-85
2021/09/04 03:39:41;;;;;;;10.43;5.82;;;15.10;98.20;;;;;;5034189;28;20029;-82
2021/09/04 03:42:07;;;;;;;11.40;6.40;;;15.10;98.00;;;;;;5035503;28;20033;-81
2021/09/04 03:44:33;;;;;;;9.45;5.90;;;15.20;97.90;;;;;;5034004;28;20536;-82
2021/09/04 03:46:59;;;;;;;11.68;6.20;;;15.20;97.90;;;;;;5033665;28;20029;-81
2021/09/04 03:49:24;;;;;;;11.80;6.55;;;15.20;97.90;;;;;;5034150;28;20430;-82
2021/09/04 03:51:50;;;;;;;9.43;6.15;;;15.20;97.90;;;;;;5035236;28;20030;-81
2021/09/04 03:54:15;;;;;;;9.15;6.07;;;15.10;98.00;;;;;;5033971;28;20022;-82
2021/09/04 03:56:41;;;;;;;9.80;6.63;;;15.10;98.20;;;;;;5033940;28;20022;-82
2021/09/04 03:59:07;;;;;;;10.20;6.35;;;15.10;98.20;;;;;;5035321;28;20053;-82
2021/09/04 04:01:33;;;;;;;11.10;6.38;;;15.10;98.40;;;;;;5035027;28;20021;-82
2021/09/04 04:03:59;;;;;;;9.25;6.35;;;15.00;98.30;;;;;;5035282;28;20104;-82
2021/09/04 04:06:25;;;;;;;10.27;6.57;;;15.00;98.40;;;;;;5036069;28;20483;-81
2021/09/04 04:08:51;;;;;;;10.35;6.78;;;15.00;98.50;;;;;;5034812;28;20037;-83
2021/09/04 04:11:16;;;;;;;11.80;7.30;;;15.00;98.80;;;;;;5032725;28;20372;-82
2021/09/04 04:13:42;;;;;;;9.95;6.93;;;15.00;98.80;;;;;;5041917;28;20028;-79
2021/09/04 04:16:08;;;;;;;11.63;7.15;;;15.10;98.70;;;;;;5054702;28;20029;-84
2021/09/04 04:18:34;;;;;;;10.02;6.63;;;15.30;98.30;;;;;;5054948;28;20024;-81
2021/09/04 04:21:00;;;;;;;9.65;6.97;;;15.30;98.30;;;;;;5045973;28;20029;-84
2021/09/04 04:23:26;;;;;;;12.45;7.00;;;15.30;98.20;;;;;;5034615;28;20440;-81
2021/09/04 04:25:52;;;;;;;10.70;7.03;;;15.20;98.30;;;;;;5034802;28;20108;-81
2021/09/04 04:28:19;;;;;;;12.05;6.90;;;15.20;98.50;;;;;;5034228;28;20116;-83
2021/09/04 04:30:45;;;;;;;13.95;7.32;;;15.20;98.50;;;;;;5034448;28;20045;-82
2021/09/04 04:33:12;;;;;;;9.98;7.07;;;15.20;98.40;;;;;;5035645;28;20025;-81
2021/09/04 04:35:38;;;;;;;12.50;7.47;;;15.20;98.60;;;;;;5033283;28;20032;-86
2021/09/04 04:38:04;;;;;;;20.73;14.65;;;15.10;98.70;;;;;;5033123;28;20037;-86
2021/09/04 04:40:30;;;;;;;22.08;15.43;;;15.10;99.00;;;;;;5048699;28;20068;-88
2021/09/04 04:42:55;;;;;;;15.82;9.18;;;15.10;99.20;;;;;;5053291;28;20025;-87
2021/09/04 04:45:21;;;;;;;11.48;7.45;;;15.10;99.20;;;;;;5051516;28;20029;-88
2021/09/04 04:47:46;;;;;;;12.32;6.15;;;15.30;99.20;;;;;;5033307;28;20025;-86
2021/09/04 04:50:12;;;;;;;10.63;6.32;;;15.40;99.00;;;;;;5037073;28;20084;-88
2021/09/04 04:52:39;;;;;;;8.18;5.50;;;15.60;98.70;;;;;;5033055;28;20021;-87
2021/09/04 04:55:05;;;;;;;9.38;5.95;;;15.90;98.10;;;;;;5033054;28;20487;-83
2021/09/04 04:57:31;;;;;;;10.48;6.15;;;16.10;97.70;;;;;;5033159;28;20036;-85
2021/09/04 04:59:57;;;;;;;9.23;5.95;;;16.20;97.30;;;;;;5047140;28;20029;-85
2021/09/04 05:02:22;;;;;;;8.13;5.65;;;16.20;97.40;;;;;;5054164;28;20456;-84
2021/09/04 05:04:48;;;;;;;10.23;5.45;;;16.20;97.70;;;;;;5052544;28;20387;-83
2021/09/04 05:07:14;;;;;;;8.77;5.57;;;16.20;97.50;;;;;;5036220;28;20120;-85
2021/09/04 05:09:39;;;;;;;8.10;5.32;;;16.30;97.40;;;;;;5045889;28;20029;-87
2021/09/04 05:12:05;;;;;;;7.40;5.90;;;16.40;97.40;;;;;;5049153;28;20059;-85
2021/09/04 05:14:31;;;;;;;9.60;5.68;;;16.50;97.30;;;;;;5036745;28;20025;-85
2021/09/04 05:16:56;;;;;;;7.68;5.32;;;16.50;97.30;;;;;;5033654;28;20033;-86
2021/09/04 05:19:22;;;;;;;8.70;5.88;;;16.40;97.40;;;;;;5045783;28;20108;-85
2021/09/04 05:21:48;;;;;;;7.32;5.22;;;16.50;97.50;;;;;;5032389;28;20408;-86
2021/09/04 05:24:13;;;;;;;7.32;5.40;;;16.40;97.30;;;;;;5033664;28;20029;-88
2021/09/04 05:26:39;;;;;;;11.57;6.65;;;16.40;97.40;;;;;;5032395;28;20060;-84
2021/09/04 05:29:05;;;;;;;16.52;10.57;;;16.40;97.00;;;;;;5036354;28;20035;-85
2021/09/04 18:22:11;;;;;;;6.32;3.55;;;13.60;73.80;;;;;;5110861;27;20392;-83
2021/09/04 18:24:36;;;;;;;10.85;3.90;;;13.30;75.90;;;;;;5090770;28;20078;-83
2021/09/04 18:27:02;;;;;;;6.78;4.50;;;13.20;77.80;;;;;;5090907;28;20029;-84
2021/09/04 18:29:28;;;;;;;10.60;5.70;;;13.10;79.40;;;;;;5089602;28;20024;-84
2021/09/04 18:31:54;;;;;;;10.85;6.22;;;13.10;80.90;;;;;;5089586;28;20028;-83
2021/09/04 18:34:19;;;;;;;11.48;6.75;;;13.10;81.80;;;;;;5102829;28;20484;-84
2021/09/04 18:36:45;;;;;;;11.45;6.45;;;13.10;83.50;;;;;;5108246;28;20085;-84
2021/09/04 18:39:11;;;;;;;10.50;6.25;;;13.20;83.40;;;;;;5104970;28;20028;-84
2021/09/04 18:41:37;;;;;;;9.15;5.97;;;13.20;84.00;;;;;;5090567;28;20028;-84
2021/09/04 18:44:03;;;;;;;37.50;21.05;;;13.30;84.30;;;;;;5089523;28;20107;-85
2021/09/04 18:46:28;;;;;;;36.03;22.40;;;13.30;84.50;;;;;;5089622;28;20035;-84
2021/09/04 18:48:57;;;;;;;35.58;20.42;;;13.30;84.80;;;;;;5095798;28;20024;-84
2021/09/04 18:51:23;;;;;;;18.23;10.70;;;13.30;85.10;;;;;;5108400;28;20339;-83
2021/09/04 18:53:49;;;;;;;15.98;8.02;;;13.30;85.50;;;;;;5103922;28;20032;-83
2021/09/04 18:56:15;;;;;;;12.95;8.20;;;13.30;85.90;;;;;;5107722;28;20110;-83
2021/09/04 18:58:41;;;;;;;12.23;6.18;;;13.30;86.20;;;;;;5097933;28;20069;-83
2021/09/04 19:01:06;;;;;;;12.02;6.13;;;13.30;86.50;;;;;;5107905;28;20024;-83
2021/09/04 19:03:32;;;;;;;10.00;5.95;;;13.20;86.80;;;;;;5101365;28;20031;-88
2021/09/04 19:05:58;;;;;;;9.57;6.18;;;13.20;87.10;;;;;;5090628;28;20036;-88
2021/09/04 19:08:23;;;;;;;10.50;5.82;;;13.20;87.40;;;;;;5089032;28;20360;-88
2021/09/04 19:10:49;;;;;;;11.00;5.70;;;13.20;87.80;;;;;;5089310;28;20066;-88
2021/09/04 19:13:15;;;;;;;11.27;6.35;;;13.20;88.20;;;;;;5089477;28;20028;-88
2021/09/04 19:15:41;;;;;;;10.95;6.10;;;13.20;88.60;;;;;;5088737;28;20020;-86
2021/09/04 19:18:07;;;;;;;11.30;6.93;;;13.20;88.70;;;;;;5090021;28;20031;-88
2021/09/04 19:20:32;;;;;;;13.35;6.82;;;13.20;88.60;;;;;;5088409;28;20135;-87
2021/09/04 19:22:58;;;;;;;19.77;10.45;;;13.20;88.80;;;;;;5088503;28;20550;-86
2021/09/04 19:25:27;;;;;;;20.95;12.23;;;13.10;89.00;;;;;;5088795;28;20024;-88
2021/09/04 19:27:52;;;;;;;34.78;20.10;;;13.10;90.00;;;;;;5088629;28;20391;-88
2021/09/04 19:30:18;;;;;;;48.10;26.08;;;13.10;89.90;;;;;;5088660;28;20040;-87
2021/09/04 19:32:44;;;;;;;59.10;32.42;;;13.00;90.10;;;;;;5079566;28;20036;-87
2021/09/04 19:35:10;;;;;;;75.97;39.78;;;13.00;90.30;;;;;;5075096;28;20025;-87
2021/09/04 19:37:36;;;;;;;74.47;41.47;;;13.00;90.40;;;;;;5075127;28;20036;-87
2021/09/04 19:40:02;;;;;;;77.93;44.22;;;12.90;90.60;;;;;;5088912;28;20032;-88
2021/09/04 19:42:28;;;;;;;75.22;43.63;;;12.90;90.80;;;;;;5096337;28;20028;-87
2021/09/04 19:44:54;;;;;;;69.55;40.60;;;12.90;91.00;;;;;;5096671;28;20024;-87
2021/09/04 19:47:19;;;;;;;63.85;37.67;;;12.90;91.10;;;;;;5095491;28;20360;-87
2021/09/04 19:49:45;;;;;;;59.55;34.13;;;12.80;91.20;;;;;;5096465;28;20081;-86
2021/09/04 19:52:11;;;;;;;55.80;31.40;;;12.80;91.30;;;;;;5076260;28;20394;-86
2021/09/04 19:54:37;;;;;;;46.38;28.55;;;12.70;91.50;;;;;;5076189;28;20099;-86
2021/09/04 19:57:03;;;;;;;47.95;27.35;;;12.70;91.60;;;;;;5074929;28;20118;-87
2021/09/04 19:59:28;;;;;;;40.60;25.30;;;12.70;91.70;;;;;;5074909;28;20467;-87
2021/09/04 20:01:54;;;;;;;37.13;23.90;;;12.60;91.80;;;;;;5074537;28;20031;-87
2021/09/04 20:04:20;;;;;;;38.05;23.85;;;12.60;92.00;;;;;;5074936;28;20029;-86
2021/09/04 20:06:46;;;;;;;39.33;24.70;;;12.60;92.10;;;;;;5076269;28;20720;-86
2021/09/04 20:09:11;;;;;;;36.88;23.33;;;12.50;92.20;;;;;;5074707;28;20094;-86
2021/09/04 20:11:37;;;;;;;34.00;21.20;;;12.50;92.40;;;;;;5075770;28;20387;-87
2021/09/04 20:14:03;;;;;;;31.50;19.80;;;12.40;92.50;;;;;;5075880;28;20071;-87
2021/09/04 20:16:28;;;;;;;31.27;18.92;;;12.40;92.60;;;;;;5074634;28;20028;-87
2021/09/04 20:18:54;;;;;;;28.63;18.17;;;12.30;92.60;;;;;;5074646;28;20052;-87
2021/09/04 20:21:20;;;;;;;25.48;16.95;;;12.30;92.70;;;;;;5074023;28;20044;-87
2021/09/04 20:23:47;;;;;;;24.50;16.92;;;12.30;92.80;;;;;;5074568;28;20098;-86
2021/09/04 20:26:13;;;;;;;25.25;15.30;;;12.30;92.90;;;;;;5074310;28;20017;-87
2021/09/04 20:28:38;;;;;;;23.60;15.35;;;12.20;92.90;;;;;;5075707;28;20020;-86
2021/09/04 20:31:04;;;;;;;23.20;14.18;;;12.20;93.00;;;;;;5075401;28;20028;-86
2021/09/04 20:33:30;;;;;;;20.08;13.57;;;12.20;93.10;;;;;;5074075;28;20055;-86
2021/09/04 20:36:03;;;;;;;20.45;12.95;;;12.10;93.10;;;;;;5074407;28;20036;-86
2021/09/04 20:38:37;;;;;;;20.65;12.75;;;12.10;93.20;;;;;;5074096;28;20028;-86
2021/09/04 20:41:02;;;;;;;18.50;12.82;;;12.10;93.30;;;;;;5073632;28;20040;-86
2021/09/04 20:43:28;;;;;;;17.50;12.15;;;12.00;93.40;;;;;;5072952;28;20020;-86
2021/09/04 20:45:54;;;;;;;18.45;13.48;;;12.00;93.50;;;;;;5074992;28;20027;-86
2021/09/04 20:48:20;;;;;;;19.77;12.93;;;12.00;93.60;;;;;;5073903;28;20106;-86
2021/09/04 20:50:45;;;;;;;22.23;13.63;;;11.90;93.60;;;;;;5073901;28;20051;-86
2021/09/04 20:53:11;;;;;;;23.05;14.05;;;11.90;93.60;;;;;;5073872;28;20028;-86
2021/09/04 20:55:37;;;;;;;19.52;13.30;;;11.90;93.60;;;;;;5073770;28;20025;-86
2021/09/04 20:58:03;;;;;;;18.85;13.15;;;11.90;93.70;;;;;;5073831;28;20161;-86
2021/09/04 21:00:28;;;;;;;17.33;11.90;;;11.80;93.80;;;;;;5073800;28;20024;-86
2021/09/04 21:02:54;;;;;;;20.23;12.07;;;11.80;93.80;;;;;;5073741;28;20490;-86
2021/09/04 21:05:20;;;;;;;16.58;11.30;;;11.80;93.90;;;;;;5073526;28;20376;-86
2021/09/04 21:07:45;;;;;;;18.63;11.15;;;11.80;94.00;;;;;;5073849;28;20020;-86
2021/09/04 21:10:11;;;;;;;15.90;11.35;;;11.70;94.10;;;;;;5073363;28;20025;-86
2021/09/04 21:12:38;;;;;;;17.90;10.35;;;11.70;94.20;;;;;;5076717;28;20035;-86
2021/09/04 21:15:06;;;;;;;15.65;10.32;;;11.70;94.20;;;;;;5093728;28;20389;-86
2021/09/04 21:17:32;;;;;;;15.40;9.68;;;11.60;94.30;;;;;;5079126;28;20120;-86
2021/09/04 21:19:58;;;;;;;13.10;9.52;;;11.70;94.40;;;;;;5073128;28;20076;-86
2021/09/04 21:22:24;;;;;;;18.33;9.27;;;11.60;94.50;;;;;;5074516;28;20027;-86
2021/09/04 21:24:49;;;;;;;14.55;9.13;;;11.60;94.50;;;;;;5074491;28;20021;-86
2021/09/04 21:27:15;;;;;;;16.85;9.18;;;11.60;94.60;;;;;;5073256;28;20428;-86
2021/09/04 21:29:41;;;;;;;14.52;10.15;;;11.60;94.70;;;;;;5073175;28;20032;-86
2021/09/04 21:32:07;;;;;;;19.90;12.45;;;11.60;94.80;;;;;;5073384;28;20024;-86
2021/09/04 21:34:32;;;;;;;15.35;10.07;;;11.50;94.80;;;;;;5074165;28;20077;-86
2021/09/04 21:36:58;;;;;;;20.17;10.98;;;11.50;94.90;;;;;;5074398;28;20522;-85
2021/09/04 21:39:24;;;;;;;16.65;12.40;;;11.50;94.90;;;;;;5072916;28;20051;-85
2021/09/04 21:41:49;;;;;;;18.80;11.65;;;11.50;95.00;;;;;;5079984;28;20107;-85
2021/09/04 21:44:15;;;;;;;23.10;13.10;;;11.40;95.00;;;;;;5092941;28;20047;-85
2021/09/04 21:46:41;;;;;;;21.48;12.10;;;11.40;95.10;;;;;;5092845;28;20032;-85
2021/09/04 21:49:07;;;;;;;18.52;12.10;;;11.40;95.20;;;;;;5093009;28;20434;-85
2021/09/04 21:51:32;;;;;;;16.65;11.30;;;11.40;95.20;;;;;;5094140;28;20493;-84
2021/09/04 21:53:58;;;;;;;16.23;10.63;;;11.40;95.30;;;;;;5094063;28;20470;-84
2021/09/04 21:56:24;;;;;;;15.43;10.82;;;11.40;95.40;;;;;;5092732;28;20031;-85
2021/09/04 21:58:49;;;;;;;16.48;11.30;;;11.30;95.40;;;;;;5073251;28;20025;-85
2021/09/04 22:01:15;;;;;;;18.05;11.27;;;11.30;95.40;;;;;;5072532;28;20458;-85
2021/09/04 22:03:41;;;;;;;22.75;11.57;;;11.30;95.50;;;;;;5072515;28;20032;-85
2021/09/04 22:06:06;;;;;;;15.25;10.40;;;11.30;95.50;;;;;;5072415;28;20157;-85
2021/09/04 22:08:32;;;;;;;19.20;10.70;;;11.30;95.50;;;;;;5072313;28;20028;-85
2021/09/04 22:10:58;;;;;;;15.88;9.68;;;11.20;95.50;;;;;;5072535;28;20032;-85
2021/09/04 22:13:23;;;;;;;14.70;9.52;;;11.20;95.60;;;;;;5073941;28;20017;-85
2021/09/04 22:15:49;;;;;;;18.02;9.68;;;11.20;95.60;;;;;;5072417;28;20429;-85
2021/09/04 22:18:15;;;;;;;14.27;8.95;;;11.20;95.60;;;;;;5074775;28;20032;-85
2021/09/04 22:20:40;;;;;;;12.02;8.90;;;11.10;95.60;;;;;;5073185;28;20098;-85
2021/09/04 22:23:06;;;;;;;12.77;8.07;;;11.10;95.60;;;;;;5072341;28;20074;-85
2021/09/04 22:25:33;;;;;;;15.07;8.48;;;11.10;95.70;;;;;;5073404;28;20016;-85
2021/09/04 22:28:01;;;;;;;18.17;9.20;;;11.10;95.70;;;;;;5073583;28;20051;-85
2021/09/04 22:30:27;;;;;;;12.50;7.80;;;11.10;95.70;;;;;;5072587;28;20474;-85
2021/09/04 22:32:53;;;;;;;15.88;7.88;;;11.10;95.80;;;;;;5072136;28;20024;-85
2021/09/04 22:35:23;;;;;;;13.23;8.13;;;11.00;95.80;;;;;;5071849;28;20040;-85
2021/09/04 22:40:34;;;;;;;9.88;7.00;;;11.00;95.60;;;;;;5073894;28;20404;-85
2021/09/04 22:43:00;;;;;;;13.82;7.18;;;11.00;95.80;;;;;;5072290;28;20493;-85
2021/09/04 22:45:26;;;;;;;10.90;7.50;;;11.00;96.00;;;;;;5073617;28;20096;-85
2021/09/04 22:47:51;;;;;;;16.17;7.38;;;11.00;96.10;;;;;;5072179;28;20127;-85
2021/09/04 22:50:17;;;;;;;13.32;7.40;;;11.00;96.00;;;;;;5087588;28;20096;-85
2021/09/04 22:52:42;;;;;;;11.27;6.80;;;11.00;96.00;;;;;;5093551;28;20032;-85
2021/09/04 22:55:09;;;;;;;14.43;7.05;;;10.90;96.00;;;;;;5091698;28;20029;-85
2021/09/04 22:57:35;;;;;;;9.75;5.97;;;10.90;96.20;;;;;;5092369;28;20474;-85
2021/09/04 23:00:02;;;;;;;9.73;6.47;;;10.90;96.30;;;;;;5093455;28;20039;-86
2021/09/04 23:02:28;;;;;;;8.65;5.90;;;11.00;96.40;;;;;;5093865;28;20013;-85
2021/09/04 23:04:54;;;;;;;9.55;6.15;;;11.00;96.40;;;;;;5083092;28;20131;-85
2021/09/04 23:07:19;;;;;;;10.35;6.00;;;11.00;96.50;;;;;;5073224;28;20517;-86
2021/09/04 23:09:45;;;;;;;10.68;6.07;;;11.10;96.60;;;;;;5075758;28;20447;-86
2021/09/04 23:12:13;;;;;;;11.15;6.35;;;11.10;96.90;;;;;;5076763;28;20032;-86
2021/09/04 23:14:39;;;;;;;10.73;6.18;;;11.10;96.70;;;;;;5075963;28;20032;-85
2021/09/04 23:17:07;;;;;;;10.55;5.93;;;11.10;96.80;;;;;;5075816;28;20029;-86
2021/09/04 23:19:33;;;;;;;9.27;6.03;;;11.10;96.90;;;;;;5083388;28;20651;-86
2021/09/04 23:21:59;;;;;;;9.63;6.05;;;11.10;97.00;;;;;;5095770;28;20146;-87
2021/09/04 23:24:25;;;;;;;9.60;6.00;;;11.20;97.10;;;;;;5096114;28;20027;-86
2021/09/04 23:26:50;;;;;;;8.65;6.40;;;11.20;97.30;;;;;;5096154;28;20020;-86
2021/09/04 23:29:16;;;;;;;9.65;6.18;;;11.30;97.50;;;;;;5096000;28;20027;-86
2021/09/04 23:31:42;;;;;;;9.15;6.35;;;11.30;97.60;;;;;;5095947;28;20062;-86
2021/09/04 23:34:07;;;;;;;10.80;6.40;;;11.30;97.60;;;;;;5095484;28;20031;-86
2021/09/04 23:36:33;;;;;;;8.85;6.60;;;11.40;97.80;;;;;;5096069;28;20028;-86
2021/09/04 23:38:59;;;;;;;10.02;6.55;;;11.40;97.90;;;;;;5095782;28;20035;-86
2021/09/04 23:41:25;;;;;;;10.23;6.00;;;11.50;98.00;;;;;;5096959;28;20031;-86
2021/09/04 23:43:54;;;;;;;12.32;6.75;;;11.50;97.90;;;;;;5096835;28;20027;-86
2021/09/04 23:46:21;;;;;;;10.77;6.47;;;11.50;98.00;;;;;;5095523;28;20020;-86
2021/09/04 23:48:47;;;;;;;13.27;6.97;;;11.50;97.90;;;;;;5096627;28;20081;-86
2021/09/04 23:51:13;;;;;;;15.32;7.10;;;11.50;97.90;;;;;;5095848;28;20074;-86
2021/09/04 23:53:39;;;;;;;11.23;6.57;;;11.60;97.90;;;;;;5095414;28;20028;-86
2021/09/04 23:56:04;;;;;;;13.90;6.22;;;11.60;97.80;;;;;;5095481;28;20024;-86
2021/09/04 23:58:31;;;;;;;11.70;6.68;;;11.50;97.80;;;;;;5095234;28;20032;-86
